Погода Вицимицена 2 недели

Западнопоморское воеводство, Польша

25 июля-07 августа
  • 25июля
    Сегодня
    +11°
    +21°
    Небольшая облачность
    ВремяПогодаТемператураВлажностьДавлениеВетер, м/сВероятность осадков
    02:00Ясно и безоблачно+13°C83 %759 мм1.8 м/с2 %
    05:00Ясно и безоблачно+11°C88 %759 мм1.9 м/с2 %
    08:00Практически безоблачно+16°C77 %759 мм2.9 м/с2 %
    11:00Небольшая облачность+18°C63 %759 мм3.5 м/с4 %
    14:00Небольшая облачность+20°C54 %759 мм3.9 м/с3 %
    17:00Облачно с прояснениями+20°C58 %758 мм3.1 м/с1 %
    20:00Ясно и безоблачно+18°C75 %758 мм1.9 м/с2 %
    23:00Ясно и безоблачно+13°C88 %758 мм0.3 м/с2 %
  • 26июля
    Пятница
    +14°
    +23°
    Небольшая облачность
    ВремяПогодаТемператураВлажностьДавлениеВетер, м/сВероятность осадков
    02:00Облачно с прояснениями+11°C92 %758 мм0.8 м/с2 %
    05:00Практически безоблачно+11°C92 %758 мм1.2 м/с2 %
    08:00Облачно с прояснениями+16°C78 %758 мм1.7 м/с2 %
    11:00Облачно с прояснениями+20°C56 %758 мм2.7 м/с2 %
    14:00Небольшая облачность+22°C50 %757 мм2.9 м/с3 %
    17:00Пасмурно, сплошная облачность+23°C50 %757 мм2.3 м/с7 %
    20:00Ясно и безоблачно+21°C69 %757 мм2.1 м/с12 %
    23:00Облачно с прояснениями+17°C71 %757 мм1.6 м/с7 %
  • 27июля
    Суббота
    +14°
    +23°
    Пасмурно, небольшой дождь
    ВремяПогодаТемператураВлажностьДавлениеВетер, м/сВероятность осадков
    02:00Облачно с прояснениями+16°C66 %757 мм1.8 м/с17 %
    05:00Облачно с прояснениями+15°C78 %757 мм1.5 м/с29 %
    08:00Пасмурно, дождь+18°C91 %758 мм2.0 м/с50 %
    11:00Пасмурно, дождь+22°C87 %759 мм2.9 м/с69 %
    14:00Пасмурно, небольшой дождь+22°C78 %759 мм3.0 м/с64 %
    17:00Пасмурно, ливень+22°C87 %759 мм1.7 м/с61 %
    20:00Пасмурно, ливень+21°C94 %759 мм1.8 м/с39 %
    23:00Пасмурно, ливень+17°C94 %760 мм1.0 м/с49 %
  • 28июля
    Воскресенье
    +12°
    +20°
    Пасмурно, ливень
    ВремяПогодаТемператураВлажностьДавлениеВетер, м/сВероятность осадков
    02:00Пасмурно, небольшой дождь+16°C93 %760 мм1.4 м/с55 %
    05:00Пасмурно, небольшой дождь+15°C95 %760 мм1.3 м/с57 %
    08:00Пасмурно, небольшой дождь+16°C93 %760 мм1.6 м/с63 %
    11:00Пасмурно, небольшой дождь+17°C84 %761 мм2.5 м/с73 %
    14:00Пасмурно, ливень+18°C82 %762 мм3.6 м/с75 %
    17:00Небольшая облачность и лёгкий дождик+20°C63 %762 мм4.2 м/с66 %
    20:00Ясно и безоблачно+19°C68 %763 мм3.1 м/с26 %
    23:00Практически безоблачно+15°C72 %764 мм2.3 м/с15 %
  • 29июля
    Понедельник
    +10°
    +22°
    Облачно с прояснениями
    ВремяПогодаТемператураВлажностьДавлениеВетер, м/сВероятность осадков
    02:00Практически безоблачно+14°C76 %765 мм2.7 м/с16 %
    05:00Практически безоблачно+13°C81 %765 мм2.4 м/с14 %
    08:00Практически безоблачно+16°C75 %765 мм3.6 м/с14 %
    11:00Практически безоблачно+19°C66 %766 мм4.3 м/с25 %
    14:00Облачно с прояснениями+20°C61 %766 мм4.5 м/с13 %
    17:00Облачно с прояснениями+21°C64 %765 мм3.8 м/с14 %
    20:00Практически безоблачно+19°C75 %765 мм2.4 м/с5 %
    23:00Ясно и безоблачно+14°C87 %765 мм1.4 м/с4 %
Мы используем cookies
Соглашаюсь